JLY7695 SBCF-SBEG
Flight info
| Callsign | JLY7695 |
|---|---|
| Flight time | 3h 14m |
| Altitude | 34000 |
| Route | GIMPO UZ33 UGUGA UM409 UDOMA DCT PAMEB DCT IRUMO |
| Aircraft | B738/M-SDE2E3FGHIRWXY/LB1 |
Departure
| Time | 2026-05-06 10:02 |
|---|---|
| Airport | Tancredo Neves International Airport (SBCF) |
Arrival
| Time | 2026-05-06 13:16 |
|---|---|
| Airport | Eduardo Gomes International Airport (SBEG) |
| Time | Latitude | Longitude | Altitude | Speed | Heading |
|---|---|---|---|---|---|
| 2026-05-06 09:38 | -19.62819 | -43.96870 | 2814 ft | 0 kts | 67° |
| 2026-05-06 09:51 | -19.62819 | -43.96871 | 2809 ft | 1 kts | 67° |
| 2026-05-06 09:52 | -19.62830 | -43.96891 | 2815 ft | 4 kts | 32° |
| 2026-05-06 09:52 | -19.62850 | -43.96894 | 2815 ft | 4 kts | 326° |
| 2026-05-06 09:52 | -19.62856 | -43.96889 | 2815 ft | 1 kts | 318° |
| 2026-05-06 09:57 | -19.62846 | -43.96899 | 2809 ft | 6 kts | 317° |
| 2026-05-06 09:57 | -19.62822 | -43.96960 | 2809 ft | 10 kts | 277° |
| 2026-05-06 09:57 | -19.62818 | -43.97031 | 2810 ft | 9 kts | 267° |
| 2026-05-06 09:57 | -19.62836 | -43.97096 | 2812 ft | 9 kts | 250° |
| 2026-05-06 09:58 | -19.62822 | -43.97159 | 2812 ft | 9 kts | 312° |
| 2026-05-06 09:58 | -19.62774 | -43.97198 | 2808 ft | 9 kts | 323° |
| 2026-05-06 09:58 | -19.62729 | -43.97241 | 2808 ft | 9 kts | 317° |
| 2026-05-06 09:58 | -19.62677 | -43.97291 | 2806 ft | 11 kts | 317° |
| 2026-05-06 09:59 | -19.62612 | -43.97352 | 2803 ft | 14 kts | 319° |
| 2026-05-06 09:59 | -19.62534 | -43.97425 | 2804 ft | 15 kts | 319° |
| 2026-05-06 09:59 | -19.62455 | -43.97497 | 2805 ft | 15 kts | 319° |
| 2026-05-06 09:59 | -19.62379 | -43.97567 | 2802 ft | 14 kts | 319° |
| 2026-05-06 10:00 | -19.62307 | -43.97633 | 2797 ft | 13 kts | 319° |
| 2026-05-06 10:00 | -19.62248 | -43.97691 | 2806 ft | 9 kts | 308° |
| 2026-05-06 10:00 | -19.62249 | -43.97751 | 2800 ft | 9 kts | 237° |
| 2026-05-06 10:00 | -19.62299 | -43.97781 | 2802 ft | 8 kts | 188° |
| 2026-05-06 10:01 | -19.62357 | -43.97785 | 2799 ft | 8 kts | 182° |
| 2026-05-06 10:01 | -19.62409 | -43.97764 | 2804 ft | 9 kts | 142° |
| 2026-05-06 10:01 | -19.62585 | -43.97601 | 2801 ft | 67 kts | 139° |
| 2026-05-06 10:01 | -19.63111 | -43.97117 | 2810 ft | 131 kts | 139° |
| 2026-05-06 10:02 | -19.63932 | -43.96353 | 2889 ft | 177 kts | 139° |
| 2026-05-06 10:02 | -19.64916 | -43.95456 | 3510 ft | 190 kts | 139° |
| 2026-05-06 10:02 | -19.65880 | -43.94553 | 4532 ft | 181 kts | 136° |
| 2026-05-06 10:02 | -19.66873 | -43.93633 | 4972 ft | 199 kts | 136° |
| 2026-05-06 10:03 | -19.67962 | -43.92627 | 5227 ft | 213 kts | 136° |
| 2026-05-06 10:03 | -19.69227 | -43.91761 | 5615 ft | 225 kts | 160° |
| 2026-05-06 10:03 | -19.70811 | -43.91736 | 6127 ft | 237 kts | 194° |
| 2026-05-06 10:03 | -19.72226 | -43.92663 | 6691 ft | 244 kts | 220° |
| 2026-05-06 10:04 | -19.73296 | -43.94075 | 7225 ft | 249 kts | 240° |
| 2026-05-06 10:04 | -19.73648 | -43.95867 | 7725 ft | 252 kts | 278° |
| 2026-05-06 10:04 | -19.73050 | -43.97581 | 8269 ft | 249 kts | 309° |
| 2026-05-06 10:04 | -19.71748 | -43.98752 | 8797 ft | 245 kts | 335° |
| 2026-05-06 10:05 | -19.70179 | -43.99449 | 9341 ft | 245 kts | 342° |
| 2026-05-06 10:05 | -19.68565 | -44.00049 | 9904 ft | 246 kts | 342° |
| 2026-05-06 10:05 | -19.66945 | -44.00639 | 10427 ft | 247 kts | 342° |
| 2026-05-06 10:05 | -19.65317 | -44.01239 | 10889 ft | 249 kts | 342° |
| 2026-05-06 10:06 | -19.63675 | -44.01853 | 11353 ft | 251 kts | 342° |
| 2026-05-06 10:06 | -19.62027 | -44.02476 | 11817 ft | 253 kts | 341° |
| 2026-05-06 10:06 | -19.60368 | -44.03109 | 12286 ft | 254 kts | 341° |
| 2026-05-06 10:06 | -19.58698 | -44.03748 | 12740 ft | 256 kts | 341° |
| 2026-05-06 10:07 | -19.57014 | -44.04393 | 13199 ft | 258 kts | 341° |
| 2026-05-06 10:07 | -19.55334 | -44.05030 | 13619 ft | 263 kts | 342° |
| 2026-05-06 10:07 | -19.53516 | -44.05675 | 13731 ft | 279 kts | 343° |
| 2026-05-06 10:07 | -19.51636 | -44.06329 | 13960 ft | 290 kts | 342° |
| 2026-05-06 10:08 | -19.49676 | -44.07012 | 14063 ft | 311 kts | 342° |
| 2026-05-06 10:08 | -19.47566 | -44.07751 | 14208 ft | 329 kts | 342° |
| 2026-05-06 10:08 | -19.45335 | -44.08534 | 14336 ft | 347 kts | 342° |
| 2026-05-06 10:08 | -19.42990 | -44.09363 | 14454 ft | 364 kts | 342° |
| 2026-05-06 10:09 | -19.40550 | -44.10254 | 14620 ft | 377 kts | 341° |
| 2026-05-06 10:09 | -19.38045 | -44.11179 | 14986 ft | 384 kts | 341° |
| 2026-05-06 10:09 | -19.35517 | -44.12112 | 15460 ft | 386 kts | 341° |
| 2026-05-06 10:09 | -19.32966 | -44.13050 | 15938 ft | 389 kts | 341° |
| 2026-05-06 10:10 | -19.30394 | -44.13992 | 16378 ft | 393 kts | 341° |
| 2026-05-06 10:10 | -19.27836 | -44.15047 | 16787 ft | 398 kts | 332° |
| 2026-05-06 10:10 | -19.25658 | -44.16862 | 17209 ft | 401 kts | 315° |
| 2026-05-06 10:10 | -19.23652 | -44.18931 | 17683 ft | 404 kts | 316° |
| 2026-05-06 10:11 | -19.21613 | -44.20996 | 18054 ft | 409 kts | 316° |
| 2026-05-06 10:11 | -19.19536 | -44.23076 | 18461 ft | 413 kts | 316° |
| 2026-05-06 10:11 | -19.17436 | -44.25165 | 18811 ft | 416 kts | 316° |
| 2026-05-06 10:11 | -19.15318 | -44.27264 | 19207 ft | 418 kts | 316° |
| 2026-05-06 10:12 | -19.13187 | -44.29371 | 19599 ft | 420 kts | 316° |
| 2026-05-06 10:12 | -19.11045 | -44.31489 | 19974 ft | 423 kts | 316° |
| 2026-05-06 10:12 | -19.08891 | -44.33618 | 20350 ft | 425 kts | 316° |
| 2026-05-06 10:12 | -19.06724 | -44.35759 | 20722 ft | 428 kts | 315° |
| 2026-05-06 10:13 | -19.04543 | -44.37914 | 21087 ft | 430 kts | 315° |
| 2026-05-06 10:13 | -19.02351 | -44.40080 | 21451 ft | 433 kts | 315° |
| 2026-05-06 10:13 | -19.00145 | -44.42258 | 21809 ft | 435 kts | 315° |
| 2026-05-06 10:13 | -18.97960 | -44.44426 | 22163 ft | 437 kts | 314° |
| 2026-05-06 10:14 | -18.95747 | -44.46643 | 22511 ft | 440 kts | 314° |
| 2026-05-06 10:14 | -18.93522 | -44.48882 | 22853 ft | 443 kts | 314° |
| 2026-05-06 10:14 | -18.91288 | -44.51129 | 23192 ft | 445 kts | 314° |
| 2026-05-06 10:14 | -18.89043 | -44.53387 | 23535 ft | 447 kts | 314° |
| 2026-05-06 10:15 | -18.86782 | -44.55658 | 23836 ft | 450 kts | 314° |
| 2026-05-06 10:15 | -18.84509 | -44.57939 | 24105 ft | 452 kts | 314° |
| 2026-05-06 10:15 | -18.82224 | -44.60230 | 24407 ft | 453 kts | 314° |
| 2026-05-06 10:15 | -18.79935 | -44.62523 | 24688 ft | 455 kts | 313° |
| 2026-05-06 10:16 | -18.77633 | -44.64828 | 24945 ft | 457 kts | 313° |
| 2026-05-06 10:16 | -18.75318 | -44.67145 | 25219 ft | 459 kts | 313° |
| 2026-05-06 10:16 | -18.72998 | -44.69466 | 25503 ft | 461 kts | 313° |
| 2026-05-06 10:16 | -18.70663 | -44.71801 | 25792 ft | 462 kts | 313° |
| 2026-05-06 10:17 | -18.68327 | -44.74136 | 26071 ft | 464 kts | 313° |
| 2026-05-06 10:17 | -18.65978 | -44.76484 | 26346 ft | 466 kts | 313° |
| 2026-05-06 10:17 | -18.63652 | -44.78807 | 26605 ft | 467 kts | 313° |
| 2026-05-06 10:17 | -18.61286 | -44.81170 | 26857 ft | 469 kts | 312° |
| 2026-05-06 10:18 | -18.58915 | -44.83536 | 27105 ft | 471 kts | 312° |
| 2026-05-06 10:18 | -18.56530 | -44.85916 | 27354 ft | 473 kts | 312° |
| 2026-05-06 10:18 | -18.54141 | -44.88299 | 27599 ft | 474 kts | 312° |
| 2026-05-06 10:18 | -18.51741 | -44.90691 | 27854 ft | 475 kts | 312° |
| 2026-05-06 10:19 | -18.49336 | -44.93088 | 28100 ft | 477 kts | 312° |
| 2026-05-06 10:19 | -18.46919 | -44.95496 | 28315 ft | 479 kts | 311° |
| 2026-05-06 10:19 | -18.44499 | -44.97905 | 28547 ft | 480 kts | 311° |
| 2026-05-06 10:19 | -18.42066 | -45.00327 | 28777 ft | 482 kts | 311° |
| 2026-05-06 10:20 | -18.39629 | -45.02750 | 29003 ft | 483 kts | 311° |
| 2026-05-06 10:20 | -18.37182 | -45.05183 | 29232 ft | 484 kts | 311° |
| 2026-05-06 10:20 | -18.34731 | -45.07620 | 29454 ft | 486 kts | 311° |
| 2026-05-06 10:20 | -18.32271 | -45.10065 | 29666 ft | 487 kts | 311° |
| 2026-05-06 10:21 | -18.30602 | -45.11723 | 29833 ft | 488 kts | 311° |
| 2026-05-06 10:21 | -18.28139 | -45.14167 | 30153 ft | 486 kts | 311° |
| 2026-05-06 10:21 | -18.25684 | -45.16601 | 30504 ft | 483 kts | 311° |
| 2026-05-06 10:21 | -18.23241 | -45.19025 | 30749 ft | 483 kts | 311° |
| 2026-05-06 10:22 | -18.20795 | -45.21451 | 30936 ft | 484 kts | 310° |
| 2026-05-06 10:22 | -18.18338 | -45.23889 | 31131 ft | 485 kts | 310° |
| 2026-05-06 10:22 | -18.15884 | -45.26321 | 31377 ft | 485 kts | 310° |
| 2026-05-06 10:22 | -18.13433 | -45.28749 | 31640 ft | 484 kts | 310° |
| 2026-05-06 10:23 | -18.10984 | -45.31174 | 31890 ft | 483 kts | 310° |
| 2026-05-06 10:23 | -18.08540 | -45.33594 | 32096 ft | 483 kts | 310° |
| 2026-05-06 10:23 | -18.06090 | -45.36019 | 32313 ft | 484 kts | 310° |
| 2026-05-06 10:23 | -18.03639 | -45.38443 | 32559 ft | 483 kts | 310° |
| 2026-05-06 10:24 | -18.01189 | -45.40862 | 32763 ft | 483 kts | 310° |
| 2026-05-06 10:24 | -17.98736 | -45.43285 | 32963 ft | 484 kts | 310° |
| 2026-05-06 10:24 | -17.96314 | -45.45677 | 33171 ft | 484 kts | 310° |
| 2026-05-06 10:24 | -17.93865 | -45.48094 | 33400 ft | 484 kts | 309° |
| 2026-05-06 10:25 | -17.91410 | -45.50516 | 33606 ft | 484 kts | 309° |
| 2026-05-06 10:25 | -17.88959 | -45.52934 | 33790 ft | 484 kts | 309° |
| 2026-05-06 10:25 | -17.86501 | -45.55359 | 33979 ft | 485 kts | 309° |
| 2026-05-06 10:25 | -17.84043 | -45.57782 | 34176 ft | 484 kts | 309° |
| 2026-05-06 10:26 | -17.81585 | -45.60204 | 34335 ft | 484 kts | 309° |
| 2026-05-06 10:26 | -17.79130 | -45.62623 | 34496 ft | 484 kts | 309° |
| 2026-05-06 10:26 | -17.76675 | -45.65039 | 34704 ft | 483 kts | 309° |
| 2026-05-06 10:26 | -17.74229 | -45.67446 | 34912 ft | 482 kts | 309° |
| 2026-05-06 10:27 | -17.71783 | -45.69851 | 35092 ft | 482 kts | 309° |
| 2026-05-06 10:27 | -17.69341 | -45.72254 | 35244 ft | 482 kts | 309° |
| 2026-05-06 10:27 | -17.66895 | -45.74659 | 35417 ft | 481 kts | 309° |
| 2026-05-06 10:27 | -17.64458 | -45.77055 | 35607 ft | 480 kts | 309° |
| 2026-05-06 10:28 | -17.62027 | -45.79442 | 35771 ft | 479 kts | 308° |
| 2026-05-06 10:28 | -17.59595 | -45.81831 | 35939 ft | 479 kts | 308° |
| 2026-05-06 10:28 | -17.57168 | -45.84215 | 36102 ft | 478 kts | 308° |
| 2026-05-06 10:28 | -17.54742 | -45.86596 | 36183 ft | 479 kts | 308° |
| 2026-05-06 10:29 | -17.49865 | -45.91380 | 36181 ft | 480 kts | 308° |
| 2026-05-06 10:29 | -17.44992 | -45.96151 | 36176 ft | 478 kts | 308° |
| 2026-05-06 10:30 | -17.40139 | -46.00901 | 36183 ft | 477 kts | 309° |
| 2026-05-06 10:30 | -17.35319 | -46.05619 | 36184 ft | 476 kts | 309° |
| 2026-05-06 10:31 | -17.30480 | -46.10352 | 36182 ft | 476 kts | 309° |
| 2026-05-06 10:31 | -17.25643 | -46.15080 | 36175 ft | 476 kts | 309° |
| 2026-05-06 10:32 | -17.20802 | -46.19807 | 36178 ft | 476 kts | 309° |
| 2026-05-06 10:32 | -17.15962 | -46.24530 | 36180 ft | 476 kts | 309° |
| 2026-05-06 10:33 | -17.11118 | -46.29254 | 36173 ft | 476 kts | 309° |
| 2026-05-06 10:33 | -17.06271 | -46.33977 | 36184 ft | 477 kts | 309° |
| 2026-05-06 10:34 | -17.01415 | -46.38705 | 36175 ft | 477 kts | 309° |
| 2026-05-06 10:34 | -16.96547 | -46.43441 | 36182 ft | 478 kts | 309° |
| 2026-05-06 10:35 | -16.91675 | -46.48178 | 36171 ft | 479 kts | 309° |
| 2026-05-06 10:35 | -16.86799 | -46.52916 | 36180 ft | 479 kts | 309° |
| 2026-05-06 10:36 | -16.82076 | -46.57790 | 36161 ft | 470 kts | 300° |
| 2026-05-06 10:36 | -16.78440 | -46.63309 | 36189 ft | 464 kts | 295° |
| 2026-05-06 10:37 | -16.74883 | -46.68923 | 36182 ft | 464 kts | 295° |
| 2026-05-06 10:37 | -16.71281 | -46.74526 | 36179 ft | 465 kts | 296° |
| 2026-05-06 10:38 | -16.67650 | -46.80114 | 36179 ft | 465 kts | 296° |
| 2026-05-06 10:38 | -16.64013 | -46.85694 | 36193 ft | 465 kts | 296° |
| 2026-05-06 10:39 | -16.60380 | -46.91266 | 36189 ft | 465 kts | 296° |
| 2026-05-06 10:39 | -16.56746 | -46.96840 | 36199 ft | 464 kts | 296° |
| 2026-05-06 10:40 | -16.53112 | -47.02406 | 36186 ft | 464 kts | 296° |
| 2026-05-06 10:40 | -16.49481 | -47.07966 | 36188 ft | 464 kts | 296° |
| 2026-05-06 10:41 | -16.45852 | -47.13519 | 36187 ft | 464 kts | 296° |
| 2026-05-06 10:41 | -16.42222 | -47.19071 | 36189 ft | 464 kts | 296° |
| 2026-05-06 10:42 | -16.38534 | -47.24597 | 36190 ft | 468 kts | 301° |
| 2026-05-06 10:42 | -16.33996 | -47.29564 | 36188 ft | 476 kts | 308° |
| 2026-05-06 10:43 | -16.29285 | -47.34351 | 36199 ft | 476 kts | 308° |
| 2026-05-06 10:44 | -16.22232 | -47.41638 | 36196 ft | 476 kts | 307° |
| 2026-05-06 10:44 | -16.17565 | -47.46520 | 36187 ft | 476 kts | 307° |
| 2026-05-06 10:45 | -16.12895 | -47.51407 | 36198 ft | 476 kts | 307° |
| 2026-05-06 10:45 | -16.08215 | -47.56296 | 36200 ft | 476 kts | 307° |
| 2026-05-06 10:46 | -16.03536 | -47.61181 | 36194 ft | 477 kts | 308° |
| 2026-05-06 10:46 | -15.98848 | -47.66069 | 36197 ft | 477 kts | 308° |
| 2026-05-06 10:47 | -15.94168 | -47.70946 | 36198 ft | 476 kts | 308° |
| 2026-05-06 10:47 | -15.89491 | -47.75818 | 36202 ft | 476 kts | 308° |
| 2026-05-06 10:48 | -15.84810 | -47.80691 | 36189 ft | 476 kts | 308° |
| 2026-05-06 10:48 | -15.80171 | -47.85526 | 36272 ft | 476 kts | 308° |
| 2026-05-06 10:49 | -15.75504 | -47.90397 | 36255 ft | 475 kts | 308° |
| 2026-05-06 10:49 | -15.70843 | -47.95258 | 36241 ft | 475 kts | 308° |
| 2026-05-06 10:50 | -15.66182 | -48.00116 | 36233 ft | 475 kts | 308° |
| 2026-05-06 10:50 | -15.61522 | -48.04969 | 36210 ft | 475 kts | 308° |
| 2026-05-06 10:51 | -15.56857 | -48.09824 | 36190 ft | 475 kts | 308° |
| 2026-05-06 10:51 | -15.52195 | -48.14673 | 36183 ft | 475 kts | 308° |
| 2026-05-06 10:52 | -15.47519 | -48.19510 | 36184 ft | 476 kts | 309° |
| 2026-05-06 10:52 | -15.42654 | -48.24177 | 36176 ft | 477 kts | 311° |
| 2026-05-06 10:53 | -15.37732 | -48.28792 | 36170 ft | 477 kts | 311° |
| 2026-05-06 10:53 | -15.32833 | -48.33428 | 36177 ft | 476 kts | 311° |
| 2026-05-06 10:54 | -15.27955 | -48.38076 | 36155 ft | 476 kts | 311° |
| 2026-05-06 10:54 | -15.23084 | -48.42721 | 36159 ft | 476 kts | 311° |
| 2026-05-06 10:55 | -15.18244 | -48.47331 | 36156 ft | 476 kts | 311° |
| 2026-05-06 10:55 | -15.13372 | -48.51967 | 36157 ft | 476 kts | 311° |
| 2026-05-06 10:56 | -15.08504 | -48.56597 | 36144 ft | 475 kts | 311° |
| 2026-05-06 10:56 | -15.03640 | -48.61224 | 36151 ft | 475 kts | 311° |
| 2026-05-06 10:57 | -14.98756 | -48.65831 | 36147 ft | 475 kts | 312° |
| 2026-05-06 10:57 | -14.93863 | -48.70410 | 36148 ft | 474 kts | 312° |
| 2026-05-06 10:58 | -14.88969 | -48.74988 | 36145 ft | 474 kts | 312° |
| 2026-05-06 10:58 | -14.84085 | -48.79561 | 36138 ft | 473 kts | 312° |
| 2026-05-06 10:59 | -14.79208 | -48.84127 | 36138 ft | 473 kts | 312° |
| 2026-05-06 10:59 | -14.74330 | -48.88689 | 36139 ft | 473 kts | 312° |
| 2026-05-06 11:00 | -14.69446 | -48.93255 | 36138 ft | 473 kts | 312° |
| 2026-05-06 11:00 | -14.64564 | -48.97817 | 36131 ft | 473 kts | 312° |
| 2026-05-06 11:01 | -14.59685 | -49.02372 | 36140 ft | 473 kts | 313° |
| 2026-05-06 11:01 | -14.54797 | -49.06933 | 36129 ft | 474 kts | 313° |
| 2026-05-06 11:02 | -14.49910 | -49.11491 | 36127 ft | 474 kts | 313° |
| 2026-05-06 11:02 | -14.45016 | -49.16052 | 36122 ft | 474 kts | 313° |
| 2026-05-06 11:03 | -14.40122 | -49.20610 | 36119 ft | 474 kts | 313° |
| 2026-05-06 11:03 | -14.35223 | -49.25170 | 36117 ft | 474 kts | 313° |
| 2026-05-06 11:04 | -14.30328 | -49.29723 | 36119 ft | 474 kts | 313° |
| 2026-05-06 11:04 | -14.25428 | -49.34279 | 36113 ft | 474 kts | 313° |
| 2026-05-06 11:05 | -14.20558 | -49.38804 | 36112 ft | 474 kts | 313° |
| 2026-05-06 11:05 | -14.15661 | -49.43351 | 36113 ft | 474 kts | 313° |
| 2026-05-06 11:06 | -14.10764 | -49.47897 | 36101 ft | 474 kts | 313° |
| 2026-05-06 11:06 | -14.05868 | -49.52439 | 36101 ft | 474 kts | 313° |
| 2026-05-06 11:07 | -14.00957 | -49.56966 | 36100 ft | 474 kts | 314° |
| 2026-05-06 11:07 | -13.95971 | -49.61417 | 36090 ft | 475 kts | 315° |
| 2026-05-06 11:08 | -13.91780 | -49.65132 | 36095 ft | 474 kts | 315° |
| 2026-05-06 11:08 | -13.86781 | -49.69575 | 36091 ft | 475 kts | 315° |
| 2026-05-06 11:09 | -13.81792 | -49.74022 | 36093 ft | 475 kts | 315° |
| 2026-05-06 11:09 | -13.76835 | -49.78441 | 36092 ft | 475 kts | 315° |
| 2026-05-06 11:10 | -13.71845 | -49.82887 | 36087 ft | 474 kts | 315° |
| 2026-05-06 11:10 | -13.66862 | -49.87324 | 36090 ft | 474 kts | 315° |
| 2026-05-06 11:11 | -13.61881 | -49.91756 | 36081 ft | 473 kts | 315° |
| 2026-05-06 11:11 | -13.56904 | -49.96181 | 36078 ft | 473 kts | 315° |
| 2026-05-06 11:12 | -13.51928 | -50.00604 | 36084 ft | 472 kts | 315° |
| 2026-05-06 11:12 | -13.46961 | -50.05016 | 36085 ft | 472 kts | 315° |
| 2026-05-06 11:13 | -13.41994 | -50.09425 | 36081 ft | 472 kts | 315° |
| 2026-05-06 11:13 | -13.37027 | -50.13833 | 36082 ft | 471 kts | 315° |
| 2026-05-06 11:14 | -13.32066 | -50.18233 | 36080 ft | 471 kts | 315° |
| 2026-05-06 11:14 | -13.27105 | -50.22630 | 36082 ft | 471 kts | 316° |
| 2026-05-06 11:15 | -13.22152 | -50.27018 | 36077 ft | 470 kts | 316° |
| 2026-05-06 11:15 | -13.17202 | -50.31400 | 36073 ft | 470 kts | 316° |
| 2026-05-06 11:16 | -13.12288 | -50.35748 | 36071 ft | 469 kts | 316° |
| 2026-05-06 11:16 | -13.07348 | -50.40119 | 36068 ft | 469 kts | 316° |
| 2026-05-06 11:17 | -13.02402 | -50.44493 | 36069 ft | 469 kts | 316° |
| 2026-05-06 11:17 | -12.97470 | -50.48853 | 36067 ft | 468 kts | 316° |
| 2026-05-06 11:18 | -12.92532 | -50.53216 | 36070 ft | 468 kts | 316° |
| 2026-05-06 11:18 | -12.87598 | -50.57573 | 36064 ft | 468 kts | 316° |
| 2026-05-06 11:19 | -12.82663 | -50.61928 | 36066 ft | 468 kts | 316° |
| 2026-05-06 11:19 | -12.77733 | -50.66277 | 36060 ft | 468 kts | 316° |
| 2026-05-06 11:20 | -12.72796 | -50.70630 | 36069 ft | 468 kts | 316° |
| 2026-05-06 11:20 | -12.67863 | -50.74976 | 36068 ft | 468 kts | 316° |
| 2026-05-06 11:21 | -12.62921 | -50.79328 | 36067 ft | 468 kts | 316° |
| 2026-05-06 11:21 | -12.58009 | -50.83652 | 36068 ft | 469 kts | 316° |
| 2026-05-06 11:22 | -12.53063 | -50.88003 | 36061 ft | 469 kts | 317° |
| 2026-05-06 11:22 | -12.48112 | -50.92357 | 36067 ft | 469 kts | 317° |
| 2026-05-06 11:23 | -12.43166 | -50.96704 | 36067 ft | 469 kts | 317° |
| 2026-05-06 11:23 | -12.38211 | -51.01056 | 36065 ft | 469 kts | 317° |
| 2026-05-06 11:24 | -12.33253 | -51.05410 | 36067 ft | 470 kts | 317° |
| 2026-05-06 11:24 | -12.28294 | -51.09762 | 36064 ft | 470 kts | 317° |
| 2026-05-06 11:25 | -12.23329 | -51.14118 | 36063 ft | 470 kts | 317° |
| 2026-05-06 11:25 | -12.18368 | -51.18467 | 36068 ft | 470 kts | 317° |
| 2026-05-06 11:26 | -12.13407 | -51.22813 | 36062 ft | 470 kts | 317° |
| 2026-05-06 11:26 | -12.08442 | -51.27164 | 36062 ft | 470 kts | 317° |
| 2026-05-06 11:27 | -12.03480 | -51.31511 | 36065 ft | 470 kts | 317° |
| 2026-05-06 11:27 | -11.98547 | -51.35830 | 36062 ft | 470 kts | 317° |
| 2026-05-06 11:28 | -11.93589 | -51.40169 | 36058 ft | 470 kts | 317° |
| 2026-05-06 11:28 | -11.88625 | -51.44511 | 36061 ft | 469 kts | 317° |
| 2026-05-06 11:29 | -11.83666 | -51.48846 | 36063 ft | 469 kts | 317° |
| 2026-05-06 11:29 | -11.78707 | -51.53180 | 36061 ft | 469 kts | 317° |
| 2026-05-06 11:30 | -11.73748 | -51.57511 | 36057 ft | 469 kts | 317° |
| 2026-05-06 11:30 | -11.68790 | -51.61839 | 36058 ft | 469 kts | 317° |
| 2026-05-06 11:31 | -11.63835 | -51.66162 | 36057 ft | 469 kts | 317° |
| 2026-05-06 11:31 | -11.58872 | -51.70491 | 36054 ft | 469 kts | 317° |
| 2026-05-06 11:32 | -11.53907 | -51.74819 | 36059 ft | 469 kts | 317° |
| 2026-05-06 11:32 | -11.48943 | -51.79145 | 36055 ft | 470 kts | 317° |
| 2026-05-06 11:33 | -11.43973 | -51.83473 | 36056 ft | 470 kts | 317° |
| 2026-05-06 11:33 | -11.39000 | -51.87802 | 36055 ft | 470 kts | 317° |
| 2026-05-06 11:34 | -11.34028 | -51.92129 | 36050 ft | 470 kts | 317° |
| 2026-05-06 11:34 | -11.29054 | -51.96456 | 36055 ft | 470 kts | 317° |
| 2026-05-06 11:35 | -11.24436 | -52.01081 | 36058 ft | 468 kts | 311° |
| 2026-05-06 11:35 | -11.20052 | -52.05989 | 36046 ft | 468 kts | 310° |
| 2026-05-06 11:36 | -11.15672 | -52.10901 | 36050 ft | 468 kts | 310° |
| 2026-05-06 11:36 | -11.11259 | -52.15780 | 36051 ft | 469 kts | 311° |
| 2026-05-06 11:37 | -11.06821 | -52.20648 | 36050 ft | 469 kts | 311° |
| 2026-05-06 11:37 | -11.02381 | -52.25506 | 36054 ft | 469 kts | 311° |
| 2026-05-06 11:38 | -10.97914 | -52.30393 | 36047 ft | 468 kts | 311° |
| 2026-05-06 11:38 | -10.93506 | -52.35216 | 36051 ft | 468 kts | 311° |
| 2026-05-06 11:39 | -10.89071 | -52.40067 | 36053 ft | 468 kts | 311° |
| 2026-05-06 11:39 | -10.84639 | -52.44912 | 36054 ft | 468 kts | 311° |
| 2026-05-06 11:40 | -10.80209 | -52.49753 | 36048 ft | 468 kts | 311° |
| 2026-05-06 11:40 | -10.75774 | -52.54597 | 36053 ft | 467 kts | 311° |
| 2026-05-06 11:41 | -10.71342 | -52.59435 | 36055 ft | 467 kts | 311° |
| 2026-05-06 11:41 | -10.66912 | -52.64270 | 36058 ft | 467 kts | 311° |
| 2026-05-06 11:42 | -10.62481 | -52.69103 | 36056 ft | 467 kts | 311° |
| 2026-05-06 11:42 | -10.58049 | -52.73934 | 36056 ft | 467 kts | 311° |
| 2026-05-06 11:43 | -10.53616 | -52.78765 | 36055 ft | 467 kts | 311° |
| 2026-05-06 11:43 | -10.49185 | -52.83591 | 36059 ft | 467 kts | 311° |
| 2026-05-06 11:44 | -10.42541 | -52.90824 | 36058 ft | 467 kts | 311° |
| 2026-05-06 11:44 | -10.38110 | -52.95644 | 36060 ft | 467 kts | 311° |
| 2026-05-06 11:45 | -10.33682 | -53.00461 | 36060 ft | 466 kts | 311° |
| 2026-05-06 11:45 | -10.29252 | -53.05275 | 36059 ft | 466 kts | 311° |
| 2026-05-06 11:46 | -10.24821 | -53.10090 | 36056 ft | 466 kts | 311° |
| 2026-05-06 11:46 | -10.20392 | -53.14901 | 36062 ft | 466 kts | 311° |
| 2026-05-06 11:47 | -10.15964 | -53.19708 | 36056 ft | 466 kts | 311° |
| 2026-05-06 11:47 | -10.11533 | -53.24515 | 36064 ft | 466 kts | 311° |
| 2026-05-06 11:48 | -10.07101 | -53.29323 | 36055 ft | 466 kts | 311° |
| 2026-05-06 11:48 | -10.02664 | -53.34133 | 36059 ft | 467 kts | 311° |
| 2026-05-06 11:49 | -9.98229 | -53.38940 | 36069 ft | 466 kts | 311° |
| 2026-05-06 11:49 | -9.93795 | -53.43743 | 36057 ft | 466 kts | 311° |
| 2026-05-06 11:50 | -9.89362 | -53.48543 | 36058 ft | 466 kts | 311° |
| 2026-05-06 11:50 | -9.84928 | -53.53341 | 36066 ft | 465 kts | 311° |
| 2026-05-06 11:51 | -9.80502 | -53.58130 | 36055 ft | 465 kts | 311° |
| 2026-05-06 11:51 | -9.76079 | -53.62914 | 36062 ft | 465 kts | 311° |
| 2026-05-06 11:52 | -9.71661 | -53.67689 | 36065 ft | 464 kts | 311° |
| 2026-05-06 11:52 | -9.67993 | -53.71652 | 36056 ft | 464 kts | 311° |
| 2026-05-06 11:53 | -9.63580 | -53.76419 | 36058 ft | 463 kts | 311° |
| 2026-05-06 11:53 | -9.59170 | -53.81181 | 36058 ft | 463 kts | 311° |
| 2026-05-06 11:54 | -9.54762 | -53.85939 | 36053 ft | 463 kts | 311° |
| 2026-05-06 11:54 | -9.50356 | -53.90692 | 36055 ft | 463 kts | 311° |
| 2026-05-06 11:55 | -9.45948 | -53.95446 | 36062 ft | 463 kts | 311° |
| 2026-05-06 11:55 | -9.41534 | -54.00204 | 36057 ft | 463 kts | 311° |
| 2026-05-06 11:56 | -9.37122 | -54.04958 | 36060 ft | 463 kts | 311° |
| 2026-05-06 11:56 | -9.32705 | -54.09716 | 36059 ft | 464 kts | 311° |
| 2026-05-06 11:57 | -9.28278 | -54.14482 | 36067 ft | 464 kts | 311° |
| 2026-05-06 11:57 | -9.23852 | -54.19245 | 36066 ft | 465 kts | 311° |
| 2026-05-06 11:58 | -9.19422 | -54.24012 | 36069 ft | 465 kts | 312° |
| 2026-05-06 11:58 | -9.14990 | -54.28778 | 36068 ft | 465 kts | 312° |
| 2026-05-06 11:59 | -9.10588 | -54.33509 | 36070 ft | 465 kts | 312° |
| 2026-05-06 11:59 | -9.06153 | -54.38276 | 36076 ft | 465 kts | 312° |
| 2026-05-06 12:00 | -9.01714 | -54.43044 | 36070 ft | 465 kts | 312° |
| 2026-05-06 12:00 | -8.97275 | -54.47810 | 36070 ft | 465 kts | 312° |
| 2026-05-06 12:01 | -8.92837 | -54.52574 | 36072 ft | 465 kts | 312° |
| 2026-05-06 12:01 | -8.88399 | -54.57335 | 36078 ft | 465 kts | 312° |
| 2026-05-06 12:02 | -8.83964 | -54.62092 | 36077 ft | 465 kts | 312° |
| 2026-05-06 12:02 | -8.79527 | -54.66849 | 36075 ft | 465 kts | 312° |
| 2026-05-06 12:03 | -8.75089 | -54.71605 | 36078 ft | 465 kts | 312° |
| 2026-05-06 12:03 | -8.70654 | -54.76357 | 36073 ft | 465 kts | 312° |
| 2026-05-06 12:04 | -8.66213 | -54.81112 | 36073 ft | 465 kts | 313° |
| 2026-05-06 12:04 | -8.61773 | -54.85866 | 36070 ft | 465 kts | 313° |
| 2026-05-06 12:05 | -8.57333 | -54.90618 | 36066 ft | 465 kts | 313° |
| 2026-05-06 12:05 | -8.52890 | -54.95371 | 36067 ft | 465 kts | 313° |
| 2026-05-06 12:06 | -8.48444 | -55.00125 | 36066 ft | 465 kts | 313° |
| 2026-05-06 12:06 | -8.43994 | -55.04881 | 36062 ft | 466 kts | 313° |
| 2026-05-06 12:07 | -8.39544 | -55.09637 | 36062 ft | 466 kts | 313° |
| 2026-05-06 12:07 | -8.35090 | -55.14395 | 36062 ft | 466 kts | 313° |
| 2026-05-06 12:08 | -8.30633 | -55.19154 | 36067 ft | 466 kts | 313° |
| 2026-05-06 12:08 | -8.26177 | -55.23912 | 36061 ft | 466 kts | 313° |
| 2026-05-06 12:09 | -8.21715 | -55.28672 | 36064 ft | 467 kts | 313° |
| 2026-05-06 12:09 | -8.17256 | -55.33429 | 36058 ft | 467 kts | 313° |
| 2026-05-06 12:10 | -8.12793 | -55.38188 | 36065 ft | 466 kts | 313° |
| 2026-05-06 12:10 | -8.08332 | -55.42943 | 36065 ft | 466 kts | 313° |
| 2026-05-06 12:11 | -8.03874 | -55.47694 | 36061 ft | 466 kts | 313° |
| 2026-05-06 12:11 | -7.99414 | -55.52444 | 36066 ft | 466 kts | 313° |
| 2026-05-06 12:12 | -7.94959 | -55.57188 | 36060 ft | 466 kts | 313° |
| 2026-05-06 12:12 | -7.90505 | -55.61930 | 36066 ft | 466 kts | 313° |
| 2026-05-06 12:13 | -7.86047 | -55.66674 | 36062 ft | 466 kts | 313° |
| 2026-05-06 12:13 | -7.81591 | -55.71415 | 36050 ft | 466 kts | 313° |
| 2026-05-06 12:14 | -7.77159 | -55.76128 | 36065 ft | 466 kts | 313° |
| 2026-05-06 12:14 | -7.72700 | -55.80869 | 36054 ft | 466 kts | 313° |
| 2026-05-06 12:15 | -7.68243 | -55.85606 | 36072 ft | 466 kts | 313° |
| 2026-05-06 12:15 | -7.63778 | -55.90349 | 36059 ft | 466 kts | 313° |
| 2026-05-06 12:16 | -7.59318 | -55.95086 | 36059 ft | 466 kts | 313° |
| 2026-05-06 12:16 | -7.54857 | -55.99823 | 36063 ft | 466 kts | 313° |
| 2026-05-06 12:17 | -7.50400 | -56.04553 | 36060 ft | 466 kts | 313° |
| 2026-05-06 12:17 | -7.45939 | -56.09287 | 36064 ft | 465 kts | 313° |
| 2026-05-06 12:18 | -7.41484 | -56.14013 | 36063 ft | 465 kts | 313° |
| 2026-05-06 12:18 | -7.37028 | -56.18739 | 36068 ft | 465 kts | 313° |
| 2026-05-06 12:19 | -7.32566 | -56.23470 | 36071 ft | 466 kts | 313° |
| 2026-05-06 12:19 | -7.28106 | -56.28198 | 36067 ft | 466 kts | 313° |
| 2026-05-06 12:20 | -7.23792 | -56.33066 | 36069 ft | 466 kts | 310° |
| 2026-05-06 12:20 | -7.19600 | -56.38035 | 36062 ft | 465 kts | 310° |
| 2026-05-06 12:21 | -7.15399 | -56.42999 | 36065 ft | 465 kts | 310° |
| 2026-05-06 12:21 | -7.11179 | -56.47939 | 36069 ft | 465 kts | 310° |
| 2026-05-06 12:22 | -7.06951 | -56.52867 | 36071 ft | 465 kts | 311° |
| 2026-05-06 12:22 | -7.02722 | -56.57789 | 36063 ft | 465 kts | 311° |
| 2026-05-06 12:23 | -6.98500 | -56.62703 | 36063 ft | 464 kts | 311° |
| 2026-05-06 12:23 | -6.94281 | -56.67613 | 36066 ft | 464 kts | 311° |
| 2026-05-06 12:24 | -6.90064 | -56.72520 | 36067 ft | 463 kts | 311° |
| 2026-05-06 12:24 | -6.85849 | -56.77424 | 36060 ft | 463 kts | 311° |
| 2026-05-06 12:25 | -6.81638 | -56.82321 | 36067 ft | 463 kts | 311° |
| 2026-05-06 12:25 | -6.77426 | -56.87217 | 36061 ft | 462 kts | 311° |
| 2026-05-06 12:26 | -6.73217 | -56.92109 | 36063 ft | 462 kts | 311° |
| 2026-05-06 12:26 | -6.69013 | -56.96994 | 36059 ft | 462 kts | 311° |
| 2026-05-06 12:27 | -6.64807 | -57.01880 | 36070 ft | 462 kts | 311° |
| 2026-05-06 12:27 | -6.60604 | -57.06760 | 36063 ft | 462 kts | 311° |
| 2026-05-06 12:28 | -6.56401 | -57.11640 | 36062 ft | 461 kts | 311° |
| 2026-05-06 12:28 | -6.52225 | -57.16487 | 36062 ft | 462 kts | 311° |
| 2026-05-06 12:29 | -6.48019 | -57.21367 | 36068 ft | 462 kts | 311° |
| 2026-05-06 12:29 | -6.43812 | -57.26246 | 36066 ft | 462 kts | 311° |
| 2026-05-06 12:30 | -6.39575 | -57.31160 | 36061 ft | 462 kts | 311° |
| 2026-05-06 12:30 | -6.35392 | -57.36009 | 36062 ft | 462 kts | 311° |
| 2026-05-06 12:31 | -6.31179 | -57.40891 | 36066 ft | 462 kts | 311° |
| 2026-05-06 12:31 | -6.26962 | -57.45777 | 36066 ft | 463 kts | 311° |
| 2026-05-06 12:32 | -6.22742 | -57.50666 | 36061 ft | 463 kts | 311° |
| 2026-05-06 12:32 | -6.18524 | -57.55551 | 36058 ft | 463 kts | 311° |
| 2026-05-06 12:33 | -6.14303 | -57.60438 | 36063 ft | 463 kts | 311° |
| 2026-05-06 12:33 | -6.10081 | -57.65324 | 36062 ft | 463 kts | 311° |
| 2026-05-06 12:34 | -6.05855 | -57.70214 | 36061 ft | 463 kts | 311° |
| 2026-05-06 12:34 | -6.01629 | -57.75103 | 36058 ft | 463 kts | 311° |
| 2026-05-06 12:35 | -5.97403 | -57.79991 | 36062 ft | 464 kts | 311° |
| 2026-05-06 12:35 | -5.93172 | -57.84883 | 36070 ft | 464 kts | 311° |
| 2026-05-06 12:36 | -5.88942 | -57.89773 | 36068 ft | 464 kts | 311° |
| 2026-05-06 12:36 | -5.84709 | -57.94664 | 36067 ft | 464 kts | 311° |
| 2026-05-06 12:37 | -5.80472 | -57.99559 | 36069 ft | 464 kts | 311° |
| 2026-05-06 12:37 | -5.76947 | -58.03631 | 36074 ft | 465 kts | 311° |
| 2026-05-06 12:38 | -5.72709 | -58.08526 | 36066 ft | 465 kts | 311° |
| 2026-05-06 12:38 | -5.68467 | -58.13423 | 36061 ft | 465 kts | 311° |
| 2026-05-06 12:39 | -5.64226 | -58.18319 | 36070 ft | 464 kts | 311° |
| 2026-05-06 12:39 | -5.59988 | -58.23210 | 36070 ft | 464 kts | 311° |
| 2026-05-06 12:40 | -5.55750 | -58.28099 | 36065 ft | 464 kts | 311° |
| 2026-05-06 12:40 | -5.51514 | -58.32985 | 36069 ft | 464 kts | 311° |
| 2026-05-06 12:41 | -5.47280 | -58.37868 | 36069 ft | 464 kts | 311° |
| 2026-05-06 12:41 | -5.43051 | -58.42744 | 36074 ft | 463 kts | 311° |
| 2026-05-06 12:42 | -5.38814 | -58.47627 | 36065 ft | 464 kts | 311° |
| 2026-05-06 12:42 | -5.34579 | -58.52507 | 36074 ft | 463 kts | 312° |
| 2026-05-06 12:43 | -5.30347 | -58.57384 | 36070 ft | 463 kts | 312° |
| 2026-05-06 12:43 | -5.26113 | -58.62260 | 36061 ft | 463 kts | 312° |
| 2026-05-06 12:44 | -5.21881 | -58.67134 | 36072 ft | 463 kts | 311° |
| 2026-05-06 12:44 | -5.17647 | -58.72008 | 36060 ft | 464 kts | 311° |
| 2026-05-06 12:45 | -5.13407 | -58.76889 | 36073 ft | 464 kts | 311° |
| 2026-05-06 12:46 | -5.07046 | -58.84208 | 36064 ft | 464 kts | 311° |
| 2026-05-06 12:46 | -5.02799 | -58.89094 | 36068 ft | 465 kts | 311° |
| 2026-05-06 12:47 | -4.98550 | -58.93982 | 36068 ft | 465 kts | 311° |
| 2026-05-06 12:47 | -4.94297 | -58.98872 | 36064 ft | 465 kts | 311° |
| 2026-05-06 12:48 | -4.90035 | -59.03773 | 36082 ft | 467 kts | 312° |
| 2026-05-06 12:48 | -4.87896 | -59.06231 | 35858 ft | 472 kts | 312° |
| 2026-05-06 12:48 | -4.85749 | -59.08699 | 35305 ft | 476 kts | 312° |
| 2026-05-06 12:48 | -4.83578 | -59.11194 | 34710 ft | 475 kts | 312° |
| 2026-05-06 12:49 | -4.81413 | -59.13682 | 34244 ft | 472 kts | 312° |
| 2026-05-06 12:49 | -4.79256 | -59.16161 | 33725 ft | 470 kts | 311° |
| 2026-05-06 12:49 | -4.77117 | -59.18619 | 33263 ft | 466 kts | 311° |
| 2026-05-06 12:49 | -4.74966 | -59.21090 | 32799 ft | 463 kts | 311° |
| 2026-05-06 12:50 | -4.72883 | -59.23483 | 32365 ft | 459 kts | 311° |
| 2026-05-06 12:50 | -4.70789 | -59.25888 | 31926 ft | 456 kts | 311° |
| 2026-05-06 12:50 | -4.68712 | -59.28273 | 31495 ft | 453 kts | 311° |
| 2026-05-06 12:50 | -4.66643 | -59.30648 | 31045 ft | 451 kts | 311° |
| 2026-05-06 12:51 | -4.64588 | -59.33009 | 30627 ft | 448 kts | 311° |
| 2026-05-06 12:51 | -4.62541 | -59.35358 | 30188 ft | 446 kts | 311° |
| 2026-05-06 12:51 | -4.60502 | -59.37699 | 29698 ft | 444 kts | 311° |
| 2026-05-06 12:51 | -4.58480 | -59.40021 | 29243 ft | 440 kts | 312° |
| 2026-05-06 12:52 | -4.56472 | -59.42326 | 28790 ft | 437 kts | 312° |
| 2026-05-06 12:52 | -4.54485 | -59.44607 | 28354 ft | 433 kts | 312° |
| 2026-05-06 12:52 | -4.52506 | -59.46878 | 27915 ft | 430 kts | 312° |
| 2026-05-06 12:52 | -4.50548 | -59.49125 | 27497 ft | 427 kts | 312° |
| 2026-05-06 12:53 | -4.48602 | -59.51358 | 27080 ft | 423 kts | 312° |
| 2026-05-06 12:53 | -4.46671 | -59.53573 | 26676 ft | 421 kts | 312° |
| 2026-05-06 12:53 | -4.44752 | -59.55775 | 26251 ft | 418 kts | 312° |
| 2026-05-06 12:53 | -4.42847 | -59.57960 | 25841 ft | 415 kts | 312° |
| 2026-05-06 12:54 | -4.40951 | -59.60134 | 25414 ft | 414 kts | 312° |
| 2026-05-06 12:54 | -4.39063 | -59.62299 | 25018 ft | 411 kts | 313° |
| 2026-05-06 12:54 | -4.37183 | -59.64455 | 24584 ft | 410 kts | 313° |
| 2026-05-06 12:54 | -4.35309 | -59.66604 | 24185 ft | 409 kts | 313° |
| 2026-05-06 12:55 | -4.33442 | -59.68745 | 23769 ft | 408 kts | 313° |
| 2026-05-06 12:55 | -4.31574 | -59.70887 | 23301 ft | 407 kts | 313° |
| 2026-05-06 12:55 | -4.29717 | -59.73015 | 22863 ft | 405 kts | 313° |
| 2026-05-06 12:55 | -4.27872 | -59.75131 | 22444 ft | 402 kts | 312° |
| 2026-05-06 12:56 | -4.26040 | -59.77230 | 22022 ft | 399 kts | 312° |
| 2026-05-06 12:56 | -4.24220 | -59.79316 | 21628 ft | 396 kts | 312° |
| 2026-05-06 12:56 | -4.22416 | -59.81384 | 21230 ft | 393 kts | 312° |
| 2026-05-06 12:56 | -4.20623 | -59.83440 | 20838 ft | 391 kts | 312° |
| 2026-05-06 12:57 | -4.18840 | -59.85484 | 20450 ft | 388 kts | 312° |
| 2026-05-06 12:57 | -4.17092 | -59.87487 | 20067 ft | 386 kts | 312° |
| 2026-05-06 12:57 | -4.15331 | -59.89507 | 19669 ft | 384 kts | 312° |
| 2026-05-06 12:57 | -4.13576 | -59.91518 | 19284 ft | 383 kts | 313° |
| 2026-05-06 12:58 | -4.11815 | -59.93518 | 18889 ft | 382 kts | 315° |
| 2026-05-06 12:58 | -4.09706 | -59.95085 | 18487 ft | 377 kts | 336° |
| 2026-05-06 12:58 | -4.07237 | -59.95850 | 18064 ft | 370 kts | 354° |
| 2026-05-06 12:58 | -4.04688 | -59.96116 | 17684 ft | 366 kts | 357° |
| 2026-05-06 12:59 | -4.02154 | -59.96328 | 17282 ft | 364 kts | 357° |
| 2026-05-06 12:59 | -3.99639 | -59.96532 | 16894 ft | 362 kts | 357° |
| 2026-05-06 12:59 | -3.97138 | -59.96742 | 16512 ft | 359 kts | 357° |
| 2026-05-06 12:59 | -3.94660 | -59.96959 | 16153 ft | 357 kts | 357° |
| 2026-05-06 13:00 | -3.92193 | -59.97183 | 15775 ft | 354 kts | 356° |
| 2026-05-06 13:00 | -3.89748 | -59.97408 | 15412 ft | 352 kts | 356° |
| 2026-05-06 13:00 | -3.87315 | -59.97635 | 15045 ft | 350 kts | 356° |
| 2026-05-06 13:00 | -3.84895 | -59.97861 | 14685 ft | 348 kts | 356° |
| 2026-05-06 13:01 | -3.82490 | -59.98087 | 14309 ft | 347 kts | 356° |
| 2026-05-06 13:01 | -3.80089 | -59.98311 | 13939 ft | 346 kts | 356° |
| 2026-05-06 13:01 | -3.77699 | -59.98535 | 13538 ft | 344 kts | 356° |
| 2026-05-06 13:01 | -3.75318 | -59.98758 | 13155 ft | 342 kts | 356° |
| 2026-05-06 13:02 | -3.72954 | -59.98980 | 12786 ft | 340 kts | 357° |
| 2026-05-06 13:02 | -3.70606 | -59.99239 | 12412 ft | 340 kts | 351° |
| 2026-05-06 13:02 | -3.68386 | -60.00019 | 12165 ft | 336 kts | 339° |
| 2026-05-06 13:02 | -3.66252 | -60.00966 | 11809 ft | 334 kts | 338° |
| 2026-05-06 13:03 | -3.64138 | -60.01918 | 11471 ft | 332 kts | 338° |
| 2026-05-06 13:03 | -3.62033 | -60.02855 | 11127 ft | 330 kts | 338° |
| 2026-05-06 13:03 | -3.59934 | -60.03778 | 10777 ft | 329 kts | 339° |
| 2026-05-06 13:03 | -3.57848 | -60.04686 | 10549 ft | 323 kts | 339° |
| 2026-05-06 13:04 | -3.55810 | -60.05570 | 10374 ft | 315 kts | 339° |
| 2026-05-06 13:04 | -3.53823 | -60.06428 | 10232 ft | 307 kts | 339° |
| 2026-05-06 13:04 | -3.51888 | -60.07262 | 10100 ft | 299 kts | 339° |
| 2026-05-06 13:04 | -3.49984 | -60.08081 | 9821 ft | 297 kts | 340° |
| 2026-05-06 13:05 | -3.48089 | -60.08897 | 9523 ft | 296 kts | 339° |
| 2026-05-06 13:05 | -3.46205 | -60.09708 | 9218 ft | 294 kts | 340° |
| 2026-05-06 13:05 | -3.44328 | -60.10516 | 8893 ft | 294 kts | 340° |
| 2026-05-06 13:05 | -3.42456 | -60.11322 | 8593 ft | 293 kts | 340° |
| 2026-05-06 13:06 | -3.40579 | -60.12130 | 8298 ft | 293 kts | 340° |
| 2026-05-06 13:06 | -3.38710 | -60.12934 | 7932 ft | 292 kts | 340° |
| 2026-05-06 13:06 | -3.36865 | -60.13730 | 7657 ft | 285 kts | 340° |
| 2026-05-06 13:06 | -3.35054 | -60.14510 | 7351 ft | 281 kts | 340° |
| 2026-05-06 13:07 | -3.33285 | -60.15272 | 7061 ft | 273 kts | 340° |
| 2026-05-06 13:07 | -3.31562 | -60.16015 | 6787 ft | 266 kts | 341° |
| 2026-05-06 13:07 | -3.29886 | -60.16738 | 6531 ft | 259 kts | 341° |
| 2026-05-06 13:07 | -3.28239 | -60.17409 | 6253 ft | 252 kts | 343° |
| 2026-05-06 13:08 | -3.26608 | -60.18028 | 6017 ft | 251 kts | 344° |
| 2026-05-06 13:08 | -3.24957 | -60.18647 | 5771 ft | 257 kts | 344° |
| 2026-05-06 13:08 | -3.23252 | -60.19289 | 5520 ft | 266 kts | 344° |
| 2026-05-06 13:08 | -3.21513 | -60.19949 | 5248 ft | 267 kts | 344° |
| 2026-05-06 13:09 | -3.19791 | -60.20606 | 4985 ft | 262 kts | 344° |
| 2026-05-06 13:09 | -3.18121 | -60.21245 | 4727 ft | 258 kts | 344° |
| 2026-05-06 13:09 | -3.16460 | -60.21879 | 4461 ft | 253 kts | 344° |
| 2026-05-06 13:09 | -3.14833 | -60.22501 | 4242 ft | 247 kts | 344° |
| 2026-05-06 13:10 | -3.13229 | -60.22933 | 4127 ft | 231 kts | 4° |
| 2026-05-06 13:10 | -3.11682 | -60.22899 | 4073 ft | 215 kts | 7° |
| 2026-05-06 13:10 | -3.10236 | -60.22880 | 3955 ft | 202 kts | 6° |
| 2026-05-06 13:10 | -3.08855 | -60.22871 | 3897 ft | 199 kts | 6° |
| 2026-05-06 13:11 | -3.07456 | -60.22862 | 3809 ft | 202 kts | 6° |
| 2026-05-06 13:11 | -3.06035 | -60.22845 | 3579 ft | 203 kts | 10° |
| 2026-05-06 13:11 | -3.04810 | -60.22316 | 3285 ft | 188 kts | 52° |
| 2026-05-06 13:11 | -3.04348 | -60.21158 | 3096 ft | 177 kts | 79° |
| 2026-05-06 13:12 | -3.04078 | -60.19972 | 2868 ft | 173 kts | 77° |
| 2026-05-06 13:12 | -3.03908 | -60.18794 | 2660 ft | 170 kts | 84° |
| 2026-05-06 13:12 | -3.03846 | -60.17627 | 2442 ft | 167 kts | 87° |
| 2026-05-06 13:12 | -3.03835 | -60.16459 | 2225 ft | 170 kts | 88° |
| 2026-05-06 13:13 | -3.03837 | -60.15298 | 2000 ft | 161 kts | 88° |
| 2026-05-06 13:13 | -3.03840 | -60.14240 | 1830 ft | 143 kts | 87° |
| 2026-05-06 13:13 | -3.03842 | -60.13271 | 1642 ft | 141 kts | 88° |
| 2026-05-06 13:13 | -3.03843 | -60.12287 | 1448 ft | 141 kts | 88° |
| 2026-05-06 13:14 | -3.03845 | -60.11294 | 1261 ft | 144 kts | 88° |
| 2026-05-06 13:14 | -3.03847 | -60.10284 | 1062 ft | 143 kts | 89° |
| 2026-05-06 13:14 | -3.03850 | -60.09332 | 915 ft | 136 kts | 88° |
| 2026-05-06 13:14 | -3.03851 | -60.08395 | 745 ft | 134 kts | 88° |
| 2026-05-06 13:15 | -3.03862 | -60.07444 | 557 ft | 139 kts | 88° |
| 2026-05-06 13:15 | -3.03857 | -60.06464 | 399 ft | 141 kts | 88° |
| 2026-05-06 13:15 | -3.03853 | -60.05544 | 295 ft | 121 kts | 91° |
| 2026-05-06 13:15 | -3.03857 | -60.04850 | 297 ft | 78 kts | 90° |
| 2026-05-06 13:16 | -3.03860 | -60.04396 | 300 ft | 58 kts | 90° |
| 2026-05-06 13:16 | -3.03860 | -60.04064 | 300 ft | 39 kts | 89° |
| 2026-05-06 13:16 | -3.03860 | -60.03846 | 300 ft | 16 kts | 90° |
| 2026-05-06 13:16 | -3.03808 | -60.03773 | 302 ft | 13 kts | 21° |
| 2026-05-06 13:17 | -3.03723 | -60.03793 | 301 ft | 13 kts | 323° |
| 2026-05-06 13:17 | -3.03677 | -60.03866 | 301 ft | 13 kts | 285° |
| 2026-05-06 13:17 | -3.03656 | -60.03950 | 301 ft | 12 kts | 285° |
| 2026-05-06 13:17 | -3.03633 | -60.04031 | 302 ft | 12 kts | 286° |
| 2026-05-06 13:18 | -3.03610 | -60.04110 | 300 ft | 12 kts | 284° |
| 2026-05-06 13:18 | -3.03590 | -60.04187 | 303 ft | 11 kts | 286° |
| 2026-05-06 13:18 | -3.03559 | -60.04258 | 301 ft | 11 kts | 303° |
| 2026-05-06 13:18 | -3.03508 | -60.04314 | 299 ft | 11 kts | 319° |
| 2026-05-06 13:19 | -3.03447 | -60.04354 | 299 ft | 10 kts | 333° |
| 2026-05-06 13:19 | -3.03381 | -60.04379 | 300 ft | 10 kts | 344° |
| 2026-05-06 13:19 | -3.03336 | -60.04425 | 299 ft | 10 kts | 277° |
| 2026-05-06 13:19 | -3.03347 | -60.04491 | 299 ft | 10 kts | 260° |
| 2026-05-06 13:20 | -3.03355 | -60.04556 | 298 ft | 9 kts | 265° |
| 2026-05-06 13:20 | -3.03354 | -60.04615 | 298 ft | 6 kts | 292° |
| 2026-05-06 13:20 | -3.03328 | -60.04634 | 298 ft | 5 kts | 343° |
| 2026-05-06 13:20 | -3.03296 | -60.04639 | 298 ft | 4 kts | 354° |
| 2026-05-06 13:21 | -3.03278 | -60.04639 | 299 ft | 2 kts | 0° |
| 2026-05-06 13:21 | -3.03276 | -60.04639 | 299 ft | 0 kts | 0° |